sensor_id;sensor_type;location;lat;lon;timestamp;temperature;humidity
71175;DHT22;58876;51.994;4.472;2024-02-14T00:00:06;9.59;90.50
71175;DHT22;58876;51.994;4.472;2024-02-14T00:02:35;9.64;90.46
71175;DHT22;58876;51.994;4.472;2024-02-14T00:05:02;9.68;90.47
71175;DHT22;58876;51.994;4.472;2024-02-14T00:07:28;9.67;90.44
71175;DHT22;58876;51.994;4.472;2024-02-14T00:09:57;9.65;90.51
71175;DHT22;58876;51.994;4.472;2024-02-14T00:12:22;9.72;90.54
71175;DHT22;58876;51.994;4.472;2024-02-14T00:14:50;9.72;90.55
71175;DHT22;58876;51.994;4.472;2024-02-14T00:17:15;9.75;90.56
71175;DHT22;58876;51.994;4.472;2024-02-14T00:19:41;9.83;90.59
71175;DHT22;58876;51.994;4.472;2024-02-14T00:22:06;9.85;90.32
71175;DHT22;58876;51.994;4.472;2024-02-14T00:24:32;9.82;90.41
71175;DHT22;58876;51.994;4.472;2024-02-14T00:26:57;9.82;90.41
71175;DHT22;58876;51.994;4.472;2024-02-14T00:29:25;9.85;90.77
71175;DHT22;58876;51.994;4.472;2024-02-14T00:31:51;9.96;90.73
71175;DHT22;58876;51.994;4.472;2024-02-14T00:34:16;9.96;90.54
71175;DHT22;58876;51.994;4.472;2024-02-14T00:36:42;9.96;90.41
71175;DHT22;58876;51.994;4.472;2024-02-14T00:39:07;10.02;90.44
71175;DHT22;58876;51.994;4.472;2024-02-14T00:41:36;10.05;90.35
71175;DHT22;58876;51.994;4.472;2024-02-14T00:44:02;10.06;90.32
71175;DHT22;58876;51.994;4.472;2024-02-14T00:46:29;9.98;90.63
71175;DHT22;58876;51.994;4.472;2024-02-14T00:48:54;10.01;90.87
71175;DHT22;58876;51.994;4.472;2024-02-14T00:51:22;9.99;90.86
71175;DHT22;58876;51.994;4.472;2024-02-14T00:53:47;10.02;90.73
71175;DHT22;58876;51.994;4.472;2024-02-14T00:56:13;9.98;90.95
71175;DHT22;58876;51.994;4.472;2024-02-14T00:58:38;9.98;90.90
71175;DHT22;58876;51.994;4.472;2024-02-14T01:01:04;10.02;91.04
71175;DHT22;58876;51.994;4.472;2024-02-14T01:03:30;10.08;90.86
71175;DHT22;58876;51.994;4.472;2024-02-14T01:05:56;10.09;90.75
71175;DHT22;58876;51.994;4.472;2024-02-14T01:08:21;10.10;90.81
71175;DHT22;58876;51.994;4.472;2024-02-14T01:10:47;10.17;90.84
71175;DHT22;58876;51.994;4.472;2024-02-14T01:13:14;10.29;90.10
71175;DHT22;58876;51.994;4.472;2024-02-14T01:15:39;10.37;90.05
71175;DHT22;58876;51.994;4.472;2024-02-14T01:18:05;10.23;90.21
71175;DHT22;58876;51.994;4.472;2024-02-14T01:20:30;10.29;90.33
71175;DHT22;58876;51.994;4.472;2024-02-14T01:22:55;10.44;90.10
71175;DHT22;58876;51.994;4.472;2024-02-14T01:25:21;10.40;89.77
71175;DHT22;58876;51.994;4.472;2024-02-14T01:27:47;10.37;89.70
71175;DHT22;58876;51.994;4.472;2024-02-14T01:30:14;10.43;89.83
71175;DHT22;58876;51.994;4.472;2024-02-14T01:32:40;10.54;89.60
71175;DHT22;58876;51.994;4.472;2024-02-14T01:35:06;10.44;89.45
71175;DHT22;58876;51.994;4.472;2024-02-14T01:37:31;10.50;89.41
71175;DHT22;58876;51.994;4.472;2024-02-14T01:39:57;10.39;89.69
71175;DHT22;58876;51.994;4.472;2024-02-14T01:42:22;10.51;89.60
71175;DHT22;58876;51.994;4.472;2024-02-14T01:44:48;10.46;89.73
71175;DHT22;58876;51.994;4.472;2024-02-14T01:47:13;10.47;89.78
71175;DHT22;58876;51.994;4.472;2024-02-14T01:49:39;10.60;89.71
71175;DHT22;58876;51.994;4.472;2024-02-14T01:52:08;10.61;89.63
71175;DHT22;58876;51.994;4.472;2024-02-14T01:54:34;10.51;89.76
71175;DHT22;58876;51.994;4.472;2024-02-14T01:57:00;10.57;90.11
71175;DHT22;58876;51.994;4.472;2024-02-14T01:59:27;10.61;89.79
71175;DHT22;58876;51.994;4.472;2024-02-14T02:01:52;10.53;89.98
71175;DHT22;58876;51.994;4.472;2024-02-14T02:04:18;10.59;89.81
71175;DHT22;58876;51.994;4.472;2024-02-14T02:06:44;10.57;90.10
71175;DHT22;58876;51.994;4.472;2024-02-14T02:09:10;10.49;90.29
71175;DHT22;58876;51.994;4.472;2024-02-14T02:11:49;10.61;90.40
71175;DHT22;58876;51.994;4.472;2024-02-14T02:14:15;10.61;90.20
71175;DHT22;58876;51.994;4.472;2024-02-14T02:16:42;10.64;90.18
71175;DHT22;58876;51.994;4.472;2024-02-14T02:19:08;10.54;90.71
71175;DHT22;58876;51.994;4.472;2024-02-14T02:21:35;10.64;90.64
71175;DHT22;58876;51.994;4.472;2024-02-14T02:24:01;10.64;90.36
71175;DHT22;58876;51.994;4.472;2024-02-14T02:26:27;10.67;90.26
71175;DHT22;58876;51.994;4.472;2024-02-14T02:28:52;10.63;90.38
71175;DHT22;58876;51.994;4.472;2024-02-14T02:31:19;10.64;90.36
71175;DHT22;58876;51.994;4.472;2024-02-14T02:33:44;10.78;90.23
71175;DHT22;58876;51.994;4.472;2024-02-14T02:36:10;10.85;90.04
71175;DHT22;58876;51.994;4.472;2024-02-14T02:38:35;10.74;90.35
71175;DHT22;58876;51.994;4.472;2024-02-14T02:41:02;10.90;89.96
71175;DHT22;58876;51.994;4.472;2024-02-14T02:43:29;10.88;90.00
71175;DHT22;58876;51.994;4.472;2024-02-14T02:45:55;11.01;89.91
71175;DHT22;58876;51.994;4.472;2024-02-14T02:48:22;11.01;89.65
71175;DHT22;58876;51.994;4.472;2024-02-14T02:50:49;11.04;89.77
71175;DHT22;58876;51.994;4.472;2024-02-14T02:53:15;11.04;89.52
71175;DHT22;58876;51.994;4.472;2024-02-14T02:55:41;11.00;89.82
71175;DHT22;58876;51.994;4.472;2024-02-14T02:58:06;11.07;89.96
71175;DHT22;58876;51.994;4.472;2024-02-14T03:00:33;11.07;89.88
71175;DHT22;58876;51.994;4.472;2024-02-14T03:02:59;11.15;89.97
71175;DHT22;58876;51.994;4.472;2024-02-14T03:05:25;11.09;89.83
71175;DHT22;58876;51.994;4.472;2024-02-14T03:07:51;11.16;89.78
71175;DHT22;58876;51.994;4.472;2024-02-14T03:10:18;11.19;89.61
71175;DHT22;58876;51.994;4.472;2024-02-14T03:12:50;11.25;89.80
71175;DHT22;58876;51.994;4.472;2024-02-14T03:15:16;11.26;89.64
71175;DHT22;58876;51.994;4.472;2024-02-14T03:17:42;11.32;89.43
71175;DHT22;58876;51.994;4.472;2024-02-14T03:20:11;11.25;89.58
71175;DHT22;58876;51.994;4.472;2024-02-14T03:22:41;11.32;89.48
71175;DHT22;58876;51.994;4.472;2024-02-14T03:25:19;11.32;89.42
71175;DHT22;58876;51.994;4.472;2024-02-14T03:27:45;11.38;89.48
71175;DHT22;58876;51.994;4.472;2024-02-14T03:30:13;11.38;89.37
71175;DHT22;58876;51.994;4.472;2024-02-14T03:32:45;11.33;89.48
71175;DHT22;58876;51.994;4.472;2024-02-14T03:35:11;11.42;89.13
71175;DHT22;58876;51.994;4.472;2024-02-14T03:37:39;11.33;89.55
71175;DHT22;58876;51.994;4.472;2024-02-14T03:40:05;11.40;89.12
71175;DHT22;58876;51.994;4.472;2024-02-14T03:42:33;11.46;89.16
71175;DHT22;58876;51.994;4.472;2024-02-14T03:44:59;11.36;89.34
71175;DHT22;58876;51.994;4.472;2024-02-14T03:47:28;11.52;89.05
71175;DHT22;58876;51.994;4.472;2024-02-14T03:49:54;11.44;89.35
71175;DHT22;58876;51.994;4.472;2024-02-14T03:52:20;11.43;89.34
71175;DHT22;58876;51.994;4.472;2024-02-14T03:54:47;11.55;89.27
71175;DHT22;58876;51.994;4.472;2024-02-14T03:57:13;11.47;89.40
71175;DHT22;58876;51.994;4.472;2024-02-14T03:59:38;11.49;89.44
71175;DHT22;58876;51.994;4.472;2024-02-14T04:02:04;11.56;89.21
71175;DHT22;58876;51.994;4.472;2024-02-14T04:04:32;11.58;89.01
71175;DHT22;58876;51.994;4.472;2024-02-14T04:06:58;11.58;89.19
71175;DHT22;58876;51.994;4.472;2024-02-14T04:09:26;11.63;89.25
71175;DHT22;58876;51.994;4.472;2024-02-14T04:11:51;11.65;88.98
71175;DHT22;58876;51.994;4.472;2024-02-14T04:14:17;11.67;89.05
71175;DHT22;58876;51.994;4.472;2024-02-14T04:16:43;11.65;88.74
71175;DHT22;58876;51.994;4.472;2024-02-14T04:19:08;11.62;89.13
71175;DHT22;58876;51.994;4.472;2024-02-14T04:21:37;11.60;89.11
71175;DHT22;58876;51.994;4.472;2024-02-14T04:24:05;11.70;89.09
71175;DHT22;58876;51.994;4.472;2024-02-14T04:26:32;11.63;89.15
71175;DHT22;58876;51.994;4.472;2024-02-14T04:28:57;11.74;89.08
71175;DHT22;58876;51.994;4.472;2024-02-14T04:31:22;11.70;88.91
71175;DHT22;58876;51.994;4.472;2024-02-14T04:33:48;11.67;89.10
71175;DHT22;58876;51.994;4.472;2024-02-14T04:36:18;11.74;89.28
71175;DHT22;58876;51.994;4.472;2024-02-14T04:38:47;11.69;89.09
71175;DHT22;58876;51.994;4.472;2024-02-14T04:41:13;11.65;89.23
71175;DHT22;58876;51.994;4.472;2024-02-14T04:43:40;11.69;89.36
71175;DHT22;58876;51.994;4.472;2024-02-14T04:46:05;11.70;89.49
71175;DHT22;58876;51.994;4.472;2024-02-14T04:48:33;11.79;89.33
71175;DHT22;58876;51.994;4.472;2024-02-14T04:50:58;11.73;89.23
71175;DHT22;58876;51.994;4.472;2024-02-14T04:53:27;11.70;89.62
71175;DHT22;58876;51.994;4.472;2024-02-14T04:55:53;11.67;89.79
71175;DHT22;58876;51.994;4.472;2024-02-14T04:58:19;11.69;89.88
71175;DHT22;58876;51.994;4.472;2024-02-14T05:00:45;11.69;89.75
71175;DHT22;58876;51.994;4.472;2024-02-14T05:03:10;11.74;89.65
71175;DHT22;58876;51.994;4.472;2024-02-14T05:05:36;11.76;89.71
71175;DHT22;58876;51.994;4.472;2024-02-14T05:08:02;11.90;89.51
71175;DHT22;58876;51.994;4.472;2024-02-14T05:10:31;11.95;89.20
71175;DHT22;58876;51.994;4.472;2024-02-14T05:12:59;11.86;89.12
71175;DHT22;58876;51.994;4.472;2024-02-14T05:15:25;11.86;89.52
71175;DHT22;58876;51.994;4.472;2024-02-14T05:17:51;11.86;89.14
71175;DHT22;58876;51.994;4.472;2024-02-14T05:20:17;11.87;89.70
71175;DHT22;58876;51.994;4.472;2024-02-14T05:22:42;11.83;89.61
71175;DHT22;58876;51.994;4.472;2024-02-14T05:25:09;11.83;89.71
71175;DHT22;58876;51.994;4.472;2024-02-14T05:27:35;11.79;89.75
71175;DHT22;58876;51.994;4.472;2024-02-14T05:30:02;11.76;89.82
71175;DHT22;58876;51.994;4.472;2024-02-14T05:32:33;11.80;89.86
71175;DHT22;58876;51.994;4.472;2024-02-14T05:34:59;11.83;89.74
71175;DHT22;58876;51.994;4.472;2024-02-14T05:37:25;11.91;89.45
71175;DHT22;58876;51.994;4.472;2024-02-14T05:39:53;11.98;89.14
71175;DHT22;58876;51.994;4.472;2024-02-14T05:42:19;12.02;88.90
71175;DHT22;58876;51.994;4.472;2024-02-14T05:44:44;12.05;88.99
71175;DHT22;58876;51.994;4.472;2024-02-14T05:47:10;11.91;89.17
71175;DHT22;58876;51.994;4.472;2024-02-14T05:49:40;11.94;89.17
71175;DHT22;58876;51.994;4.472;2024-02-14T05:52:08;12.14;88.87
71175;DHT22;58876;51.994;4.472;2024-02-14T05:54:34;12.04;88.63
71175;DHT22;58876;51.994;4.472;2024-02-14T05:57:00;12.05;88.66
71175;DHT22;58876;51.994;4.472;2024-02-14T05:59:27;12.10;88.59
71175;DHT22;58876;51.994;4.472;2024-02-14T06:01:53;12.08;88.74
71175;DHT22;58876;51.994;4.472;2024-02-14T06:04:18;12.10;88.81
71175;DHT22;58876;51.994;4.472;2024-02-14T06:06:44;12.20;88.25
71175;DHT22;58876;51.994;4.472;2024-02-14T06:09:09;12.11;88.05
71175;DHT22;58876;51.994;4.472;2024-02-14T06:11:37;11.93;89.39
71175;DHT22;58876;51.994;4.472;2024-02-14T06:14:08;11.93;89.07
71175;DHT22;58876;51.994;4.472;2024-02-14T06:16:34;11.90;89.26
71175;DHT22;58876;51.994;4.472;2024-02-14T06:19:00;11.95;89.47
71175;DHT22;58876;51.994;4.472;2024-02-14T06:21:26;11.97;89.26
71175;DHT22;58876;51.994;4.472;2024-02-14T06:23:52;12.08;88.73
71175;DHT22;58876;51.994;4.472;2024-02-14T06:26:18;11.98;88.82
71175;DHT22;58876;51.994;4.472;2024-02-14T06:28:44;11.90;89.08
71175;DHT22;58876;51.994;4.472;2024-02-14T06:31:10;12.16;88.27
71175;DHT22;58876;51.994;4.472;2024-02-14T06:33:36;12.10;87.77
71175;DHT22;58876;51.994;4.472;2024-02-14T06:36:01;12.13;88.67
71175;DHT22;58876;51.994;4.472;2024-02-14T06:38:27;12.11;87.98
71175;DHT22;58876;51.994;4.472;2024-02-14T06:40:52;12.08;88.15
71175;DHT22;58876;51.994;4.472;2024-02-14T06:43:18;11.93;88.66
71175;DHT22;58876;51.994;4.472;2024-02-14T06:45:44;11.77;89.38
71175;DHT22;58876;51.994;4.472;2024-02-14T06:48:10;12.08;88.38
71175;DHT22;58876;51.994;4.472;2024-02-14T06:50:35;11.98;88.58
71175;DHT22;58876;51.994;4.472;2024-02-14T06:53:01;12.01;88.49
71175;DHT22;58876;51.994;4.472;2024-02-14T06:55:27;11.97;88.81
71175;DHT22;58876;51.994;4.472;2024-02-14T06:57:53;12.04;88.86
71175;DHT22;58876;51.994;4.472;2024-02-14T07:00:22;11.94;88.94
71175;DHT22;58876;51.994;4.472;2024-02-14T07:02:47;11.94;89.05
71175;DHT22;58876;51.994;4.472;2024-02-14T07:05:13;12.05;88.68
71175;DHT22;58876;51.994;4.472;2024-02-14T07:07:40;11.94;88.50
71175;DHT22;58876;51.994;4.472;2024-02-14T07:10:06;12.02;88.85
71175;DHT22;58876;51.994;4.472;2024-02-14T07:12:32;12.02;88.80
71175;DHT22;58876;51.994;4.472;2024-02-14T07:14:58;12.01;89.04
71175;DHT22;58876;51.994;4.472;2024-02-14T07:17:23;12.16;88.65
71175;DHT22;58876;51.994;4.472;2024-02-14T07:19:49;11.87;89.01
71175;DHT22;58876;51.994;4.472;2024-02-14T07:22:18;12.14;88.53
71175;DHT22;58876;51.994;4.472;2024-02-14T07:24:44;12.10;88.19
71175;DHT22;58876;51.994;4.472;2024-02-14T07:27:14;12.04;88.52
71175;DHT22;58876;51.994;4.472;2024-02-14T07:29:40;12.05;88.37
71175;DHT22;58876;51.994;4.472;2024-02-14T07:32:06;11.91;89.40
71175;DHT22;58876;51.994;4.472;2024-02-14T07:34:32;12.11;88.52
71175;DHT22;58876;51.994;4.472;2024-02-14T07:36:57;12.13;88.62
71175;DHT22;58876;51.994;4.472;2024-02-14T07:39:23;12.04;88.69
71175;DHT22;58876;51.994;4.472;2024-02-14T07:41:48;12.16;88.52
71175;DHT22;58876;51.994;4.472;2024-02-14T07:44:14;11.89;89.63
71175;DHT22;58876;51.994;4.472;2024-02-14T07:46:40;12.10;88.78
71175;DHT22;58876;51.994;4.472;2024-02-14T07:49:05;12.13;88.72
71175;DHT22;58876;51.994;4.472;2024-02-14T07:51:31;12.02;88.79
71175;DHT22;58876;51.994;4.472;2024-02-14T07:54:05;11.97;89.02
71175;DHT22;58876;51.994;4.472;2024-02-14T07:56:30;12.04;89.17
71175;DHT22;58876;51.994;4.472;2024-02-14T07:58:56;12.00;89.40
71175;DHT22;58876;51.994;4.472;2024-02-14T08:01:22;12.05;89.19
71175;DHT22;58876;51.994;4.472;2024-02-14T08:03:47;12.18;88.82
71175;DHT22;58876;51.994;4.472;2024-02-14T08:06:13;12.07;88.75
71175;DHT22;58876;51.994;4.472;2024-02-14T08:08:39;12.08;89.07
71175;DHT22;58876;51.994;4.472;2024-02-14T08:11:04;12.08;88.81
71175;DHT22;58876;51.994;4.472;2024-02-14T08:13:30;11.74;89.64
71175;DHT22;58876;51.994;4.472;2024-02-14T08:15:55;11.84;89.14
71175;DHT22;58876;51.994;4.472;2024-02-14T08:18:21;11.79;89.78
71175;DHT22;58876;51.994;4.472;2024-02-14T08:20:48;11.69;90.21
71175;DHT22;58876;51.994;4.472;2024-02-14T08:23:13;11.95;89.36
71175;DHT22;58876;51.994;4.472;2024-02-14T08:25:39;11.70;90.01
71175;DHT22;58876;51.994;4.472;2024-02-14T08:28:06;11.69;90.09
71175;DHT22;58876;51.994;4.472;2024-02-14T08:30:33;11.77;90.11
71175;DHT22;58876;51.994;4.472;2024-02-14T08:32:59;11.66;90.25
71175;DHT22;58876;51.994;4.472;2024-02-14T08:35:27;11.74;89.78
71175;DHT22;58876;51.994;4.472;2024-02-14T08:37:53;11.91;89.39
71175;DHT22;58876;51.994;4.472;2024-02-14T08:40:18;11.79;89.49
71175;DHT22;58876;51.994;4.472;2024-02-14T08:42:44;11.95;89.81
71175;DHT22;58876;51.994;4.472;2024-02-14T08:45:09;11.95;89.21
71175;DHT22;58876;51.994;4.472;2024-02-14T08:47:36;12.00;89.33
71175;DHT22;58876;51.994;4.472;2024-02-14T08:50:03;11.91;89.61
71175;DHT22;58876;51.994;4.472;2024-02-14T08:52:29;11.98;89.50
71175;DHT22;58876;51.994;4.472;2024-02-14T08:54:55;12.07;89.35
71175;DHT22;58876;51.994;4.472;2024-02-14T08:57:20;12.10;89.38
71175;DHT22;58876;51.994;4.472;2024-02-14T08:59:46;12.02;89.39
71175;DHT22;58876;51.994;4.472;2024-02-14T09:02:14;12.11;89.23
71175;DHT22;58876;51.994;4.472;2024-02-14T09:04:39;12.14;89.24
71175;DHT22;58876;51.994;4.472;2024-02-14T09:07:07;12.14;89.43
71175;DHT22;58876;51.994;4.472;2024-02-14T09:09:33;12.17;89.29
71175;DHT22;58876;51.994;4.472;2024-02-14T09:11:59;12.34;89.00
71175;DHT22;58876;51.994;4.472;2024-02-14T09:14:31;12.24;89.09
71175;DHT22;58876;51.994;4.472;2024-02-14T09:16:57;12.21;89.04
71175;DHT22;58876;51.994;4.472;2024-02-14T09:19:23;12.14;89.49
71175;DHT22;58876;51.994;4.472;2024-02-14T09:21:48;12.02;89.95
71175;DHT22;58876;51.994;4.472;2024-02-14T09:24:14;11.81;90.60
71175;DHT22;58876;51.994;4.472;2024-02-14T09:26:40;11.79;90.49
71175;DHT22;58876;51.994;4.472;2024-02-14T09:29:05;11.86;90.59
71175;DHT22;58876;51.994;4.472;2024-02-14T09:31:31;11.91;90.58
71175;DHT22;58876;51.994;4.472;2024-02-14T09:33:56;11.91;90.60
71175;DHT22;58876;51.994;4.472;2024-02-14T09:36:24;11.93;90.51
71175;DHT22;58876;51.994;4.472;2024-02-14T09:38:54;11.93;90.36
71175;DHT22;58876;51.994;4.472;2024-02-14T09:41:36;12.01;90.40
71175;DHT22;58876;51.994;4.472;2024-02-14T09:44:03;11.98;90.38
71175;DHT22;58876;51.994;4.472;2024-02-14T09:46:29;12.13;90.54
71175;DHT22;58876;51.994;4.472;2024-02-14T09:48:58;12.11;90.15
71175;DHT22;58876;51.994;4.472;2024-02-14T09:51:28;12.25;89.86
71175;DHT22;58876;51.994;4.472;2024-02-14T09:53:58;12.28;89.28
71175;DHT22;58876;51.994;4.472;2024-02-14T09:56:28;12.31;89.71
71175;DHT22;58876;51.994;4.472;2024-02-14T09:58:57;12.20;89.63
71175;DHT22;58876;51.994;4.472;2024-02-14T10:01:26;12.18;90.41
71175;DHT22;58876;51.994;4.472;2024-02-14T10:03:53;12.14;90.02
71175;DHT22;58876;51.994;4.472;2024-02-14T10:06:19;12.27;90.21
71175;DHT22;58876;51.994;4.472;2024-02-14T10:08:48;12.48;89.73
71175;DHT22;58876;51.994;4.472;2024-02-14T10:11:18;12.44;89.46
71175;DHT22;58876;51.994;4.472;2024-02-14T10:13:49;12.48;89.53
71175;DHT22;58876;51.994;4.472;2024-02-14T10:16:22;12.49;89.17
71175;DHT22;58876;51.994;4.472;2024-02-14T10:18:48;12.53;89.37
71175;DHT22;58876;51.994;4.472;2024-02-14T10:21:17;12.69;89.20
71175;DHT22;58876;51.994;4.472;2024-02-14T10:23:47;12.73;88.87
71175;DHT22;58876;51.994;4.472;2024-02-14T10:26:15;12.70;88.90
71175;DHT22;58876;51.994;4.472;2024-02-14T10:28:45;12.87;89.12
71175;DHT22;58876;51.994;4.472;2024-02-14T10:31:26;12.76;88.85
71175;DHT22;58876;51.994;4.472;2024-02-14T10:33:57;12.89;88.68
71175;DHT22;58876;51.994;4.472;2024-02-14T10:36:24;12.80;88.89
71175;DHT22;58876;51.994;4.472;2024-02-14T10:38:53;12.85;89.11
71175;DHT22;58876;51.994;4.472;2024-02-14T10:41:23;12.70;89.15
71175;DHT22;58876;51.994;4.472;2024-02-14T10:43:49;12.82;89.13
71175;DHT22;58876;51.994;4.472;2024-02-14T10:46:25;12.73;89.13
71175;DHT22;58876;51.994;4.472;2024-02-14T10:49:04;12.66;89.28
71175;DHT22;58876;51.994;4.472;2024-02-14T10:51:32;12.56;90.18
71175;DHT22;58876;51.994;4.472;2024-02-14T10:54:01;12.56;90.27
71175;DHT22;58876;51.994;4.472;2024-02-14T10:56:29;12.50;90.21
71175;DHT22;58876;51.994;4.472;2024-02-14T10:59:02;12.63;90.53
71175;DHT22;58876;51.994;4.472;2024-02-14T11:01:29;12.83;90.20
71175;DHT22;58876;51.994;4.472;2024-02-14T11:03:59;12.76;89.91
71175;DHT22;58876;51.994;4.472;2024-02-14T11:06:28;12.59;89.91
71175;DHT22;58876;51.994;4.472;2024-02-14T11:09:01;12.75;90.29
71175;DHT22;58876;51.994;4.472;2024-02-14T11:11:32;12.69;90.36
71175;DHT22;58876;51.994;4.472;2024-02-14T11:13:58;12.70;90.44
71175;DHT22;58876;51.994;4.472;2024-02-14T11:16:27;12.62;90.16
71175;DHT22;58876;51.994;4.472;2024-02-14T11:19:10;12.73;90.31
71175;DHT22;58876;51.994;4.472;2024-02-14T11:21:44;12.69;90.18
71175;DHT22;58876;51.994;4.472;2024-02-14T11:24:12;12.55;90.62
71175;DHT22;58876;51.994;4.472;2024-02-14T11:26:47;12.73;90.34
71175;DHT22;58876;51.994;4.472;2024-02-14T11:29:16;12.69;90.16
71175;DHT22;58876;51.994;4.472;2024-02-14T11:31:42;12.80;89.89
71175;DHT22;58876;51.994;4.472;2024-02-14T11:34:11;12.80;89.73
71175;DHT22;58876;51.994;4.472;2024-02-14T11:36:37;12.78;89.77
71175;DHT22;58876;51.994;4.472;2024-02-14T11:39:04;12.90;89.96
71175;DHT22;58876;51.994;4.472;2024-02-14T11:41:33;12.75;90.19
71175;DHT22;58876;51.994;4.472;2024-02-14T11:44:05;12.83;90.11
71175;DHT22;58876;51.994;4.472;2024-02-14T11:46:32;12.93;89.81
71175;DHT22;58876;51.994;4.472;2024-02-14T11:48:59;12.90;89.58
71175;DHT22;58876;51.994;4.472;2024-02-14T11:51:28;12.86;89.28
71175;DHT22;58876;51.994;4.472;2024-02-14T11:53:53;12.82;89.59
71175;DHT22;58876;51.994;4.472;2024-02-14T11:56:21;12.75;90.01
71175;DHT22;58876;51.994;4.472;2024-02-14T11:58:47;12.83;89.87
71175;DHT22;58876;51.994;4.472;2024-02-14T12:01:17;12.73;89.71
71175;DHT22;58876;51.994;4.472;2024-02-14T12:03:43;12.69;90.09
71175;DHT22;58876;51.994;4.472;2024-02-14T12:06:10;12.76;90.17
71175;DHT22;58876;51.994;4.472;2024-02-14T12:08:36;12.79;90.27
71175;DHT22;58876;51.994;4.472;2024-02-14T12:11:02;12.92;90.03
71175;DHT22;58876;51.994;4.472;2024-02-14T12:13:30;12.95;89.88
71175;DHT22;58876;51.994;4.472;2024-02-14T12:15:58;12.92;90.07
71175;DHT22;58876;51.994;4.472;2024-02-14T12:18:23;12.89;90.12
71175;DHT22;58876;51.994;4.472;2024-02-14T12:20:49;12.85;89.98
71175;DHT22;58876;51.994;4.472;2024-02-14T12:23:17;12.97;90.30
71175;DHT22;58876;51.994;4.472;2024-02-14T12:25:43;13.00;89.99
71175;DHT22;58876;51.994;4.472;2024-02-14T12:28:15;13.02;89.70
71175;DHT22;58876;51.994;4.472;2024-02-14T12:30:50;12.86;90.15
71175;DHT22;58876;51.994;4.472;2024-02-14T12:33:21;12.83;90.24
71175;DHT22;58876;51.994;4.472;2024-02-14T12:35:49;12.73;90.47
71175;DHT22;58876;51.994;4.472;2024-02-14T12:38:18;12.78;90.54
71175;DHT22;58876;51.994;4.472;2024-02-14T12:40:44;12.90;90.41
71175;DHT22;58876;51.994;4.472;2024-02-14T12:43:12;12.78;90.35
71175;DHT22;58876;51.994;4.472;2024-02-14T12:45:38;12.76;90.82
71175;DHT22;58876;51.994;4.472;2024-02-14T12:48:08;12.85;90.53
71175;DHT22;58876;51.994;4.472;2024-02-14T12:50:35;12.78;90.84
71175;DHT22;58876;51.994;4.472;2024-02-14T12:53:02;12.87;90.49
71175;DHT22;58876;51.994;4.472;2024-02-14T12:55:28;12.90;90.49
71175;DHT22;58876;51.994;4.472;2024-02-14T12:57:57;12.75;90.75
71175;DHT22;58876;51.994;4.472;2024-02-14T13:00:28;12.80;90.75
71175;DHT22;58876;51.994;4.472;2024-02-14T13:02:54;12.90;90.67
71175;DHT22;58876;51.994;4.472;2024-02-14T13:05:22;12.86;90.74
71175;DHT22;58876;51.994;4.472;2024-02-14T13:07:51;12.87;90.92
71175;DHT22;58876;51.994;4.472;2024-02-14T13:10:16;12.92;90.66
71175;DHT22;58876;51.994;4.472;2024-02-14T13:12:42;12.92;90.81
71175;DHT22;58876;51.994;4.472;2024-02-14T13:15:10;12.96;90.80
71175;DHT22;58876;51.994;4.472;2024-02-14T13:17:45;12.89;90.88
71175;DHT22;58876;51.994;4.472;2024-02-14T13:23:32;12.96;91.01
71175;DHT22;58876;51.994;4.472;2024-02-14T13:25:58;12.97;91.02
71175;DHT22;58876;51.994;4.472;2024-02-14T13:28:39;13.02;90.85
71175;DHT22;58876;51.994;4.472;2024-02-14T13:31:37;13.14;90.66
71175;DHT22;58876;51.994;4.472;2024-02-14T13:34:43;13.11;90.60
71175;DHT22;58876;51.994;4.472;2024-02-14T13:37:11;13.18;90.49
71175;DHT22;58876;51.994;4.472;2024-02-14T13:39:39;13.27;90.37
71175;DHT22;58876;51.994;4.472;2024-02-14T13:42:07;13.06;90.25
71175;DHT22;58876;51.994;4.472;2024-02-14T13:44:33;12.85;91.51
71175;DHT22;58876;51.994;4.472;2024-02-14T13:46:59;12.85;91.75
71175;DHT22;58876;51.994;4.472;2024-02-14T13:49:24;13.16;91.28
71175;DHT22;58876;51.994;4.472;2024-02-14T13:51:51;13.34;90.21
71175;DHT22;58876;51.994;4.472;2024-02-14T13:54:20;13.37;89.88
71175;DHT22;58876;51.994;4.472;2024-02-14T13:56:49;13.31;90.13
71175;DHT22;58876;51.994;4.472;2024-02-14T13:59:22;13.30;90.33
71175;DHT22;58876;51.994;4.472;2024-02-14T14:02:07;13.31;90.24
71175;DHT22;58876;51.994;4.472;2024-02-14T14:04:52;13.28;90.10
71175;DHT22;58876;51.994;4.472;2024-02-14T14:07:18;13.26;90.50
71175;DHT22;58876;51.994;4.472;2024-02-14T14:09:44;13.38;90.16
71175;DHT22;58876;51.994;4.472;2024-02-14T14:12:09;13.30;90.21
71175;DHT22;58876;51.994;4.472;2024-02-14T14:14:36;13.34;90.26
71175;DHT22;58876;51.994;4.472;2024-02-14T14:17:02;13.27;90.36
71175;DHT22;58876;51.994;4.472;2024-02-14T14:19:28;13.33;90.44
71175;DHT22;58876;51.994;4.472;2024-02-14T14:21:53;13.31;90.40
71175;DHT22;58876;51.994;4.472;2024-02-14T14:24:20;13.43;90.13
71175;DHT22;58876;51.994;4.472;2024-02-14T14:26:48;13.46;90.04
71175;DHT22;58876;51.994;4.472;2024-02-14T14:29:16;13.47;90.10
71175;DHT22;58876;51.994;4.472;2024-02-14T14:31:42;13.28;89.62
71175;DHT22;58876;51.994;4.472;2024-02-14T14:34:08;13.20;90.38
71175;DHT22;58876;51.994;4.472;2024-02-14T14:36:36;13.41;89.72
71175;DHT22;58876;51.994;4.472;2024-02-14T14:39:03;13.37;89.75
71175;DHT22;58876;51.994;4.472;2024-02-14T14:41:28;13.43;89.33
71175;DHT22;58876;51.994;4.472;2024-02-14T14:43:54;13.33;89.58
71175;DHT22;58876;51.994;4.472;2024-02-14T14:46:23;12.87;90.67
71175;DHT22;58876;51.994;4.472;2024-02-14T14:48:48;12.79;91.63
71175;DHT22;58876;51.994;4.472;2024-02-14T14:51:14;12.76;91.47
71175;DHT22;58876;51.994;4.472;2024-02-14T14:53:39;12.83;91.54
71175;DHT22;58876;51.994;4.472;2024-02-14T14:56:05;12.69;91.51
71175;DHT22;58876;51.994;4.472;2024-02-14T14:58:31;12.78;91.33
71175;DHT22;58876;51.994;4.472;2024-02-14T15:00:58;12.78;91.31
71175;DHT22;58876;51.994;4.472;2024-02-14T15:03:25;12.73;91.29
71175;DHT22;58876;51.994;4.472;2024-02-14T15:05:53;12.83;91.13
71175;DHT22;58876;51.994;4.472;2024-02-14T15:08:19;12.79;91.00
71175;DHT22;58876;51.994;4.472;2024-02-14T15:10:51;12.75;91.04
71175;DHT22;58876;51.994;4.472;2024-02-14T15:13:24;12.79;90.95
71175;DHT22;58876;51.994;4.472;2024-02-14T15:15:50;12.85;90.92
71175;DHT22;58876;51.994;4.472;2024-02-14T15:18:16;12.73;91.07
71175;DHT22;58876;51.994;4.472;2024-02-14T15:20:41;12.82;91.16
71175;DHT22;58876;51.994;4.472;2024-02-14T15:23:08;12.72;91.31
71175;DHT22;58876;51.994;4.472;2024-02-14T15:25:34;12.62;91.59
71175;DHT22;58876;51.994;4.472;2024-02-14T15:28:10;12.60;91.65
71175;DHT22;58876;51.994;4.472;2024-02-14T15:30:46;12.56;91.59
71175;DHT22;58876;51.994;4.472;2024-02-14T15:33:31;12.55;91.47
71175;DHT22;58876;51.994;4.472;2024-02-14T15:35:57;12.56;91.42